Flugplatz Ansbach (ETEB)

Hier findest Du alle Informationen zum Flugplatz Ansbach (ETEB).

Informationen für Piloten zum Flugplatz Ansbach

Hier findest Du alle relevanten Informationen, die Du als Pilot benötigst, um Ansbach anzufliegen.

Flugplatz: Ansbach ICAO-Code: ETEB
Frequenz Turm: 122,100 Mhz GAFOR Gebiet: 55
Frequenz Ground: 122,100 Mhz Mogas: ja
Platzrunde: - Landegebühr: -
Platzhöhe: - Sunrise: 05:46 Uhr UTC
Pisten: 08/26 - 370 m x , ASPH Sunset: 16:17 Uhr UTC

Mitglieder, die in Ansbach fliegen

Flugwetter am Flugplatz Ansbach

Die METAR Information stammen aus EDDN (38.32 km entfernt).

METAR Code:
2020/10/14 19:50
EDDN 141950Z 29007KT 9999 -RA BKN006 BKN030 07/06 Q1012 NOSIG

Temperatur: 8,1 °C Niederschlag: - Wind: 5,1 kt
Temperatur (min.): 7,2 °C Luftdruck: 1011 hPa Windrichtung: 20 °
Temperatur (max.): 10,0 °C Luftfeuchtigkeit: 81 % Bewölkung: 8/8

Flugschulen am Flugplatz Ansbach

Am Flugplatz Ansbach gibt es leider keine Flugschule.

Benachbarte Flugplätze und Flugschulen

Es gibt 23 weitere Flugplätze in einem Umkreis von 50 km um den Flugplatz Ansbach.

Jetzt anmelden

Passwort vergessen

Umfrage Archiv

Wären Rettungsgeräte keine Pflicht mehr, würdet Ihr Euer UL trotzdem mit einem ausstatten?

Ja
86.4 %
Nein
13.6 %
Stimmen: 354 | Diskussion
Anzeige: Roland Aircraft
Statistik Alle Mitglieder

Aktuell sind 43 Besucher online, davon 1 Mitglied und 42 Gäste.


Mitglieder online:
LeCiel 

Anzeige: VFR Sprechfunk Simulator


Anzeige: Pocket FMS